createdAt,value
2022-10-23T00:01:18.229Z,99.90
2022-10-23T00:03:48.206Z,99.90
2022-10-23T00:06:16.547Z,99.90
2022-10-23T00:08:44.781Z,99.90
2022-10-23T00:11:15.223Z,99.90
2022-10-23T00:13:43.685Z,99.90
2022-10-23T00:16:12.149Z,99.90
2022-10-23T00:18:41.887Z,99.90
2022-10-23T00:21:11.859Z,99.90
2022-10-23T00:23:40.749Z,99.90
2022-10-23T00:26:11.456Z,99.90
2022-10-23T00:28:39.705Z,99.90
2022-10-23T00:31:07.996Z,99.90
2022-10-23T00:33:36.220Z,99.90
2022-10-23T00:36:07.797Z,99.90
2022-10-23T00:38:36.494Z,99.90
2022-10-23T00:41:05.824Z,99.90
2022-10-23T00:43:35.507Z,99.90
2022-10-23T00:46:03.646Z,99.90
2022-10-23T00:48:31.713Z,99.90
2022-10-23T00:50:59.947Z,99.90
2022-10-23T00:53:29.904Z,99.90
2022-10-23T00:55:59.959Z,99.90
2022-10-23T00:58:28.168Z,99.90
2022-10-23T01:00:57.557Z,99.90
2022-10-23T01:03:28.946Z,99.90
2022-10-23T01:06:04.519Z,99.90
2022-10-23T01:08:41.282Z,99.90
2022-10-23T01:11:16.189Z,99.90
2022-10-23T01:13:49.537Z,99.90
2022-10-23T01:16:21.371Z,99.90
2022-10-23T01:18:54.228Z,99.90
2022-10-23T01:21:28.732Z,99.90
2022-10-23T01:24:11.697Z,99.90
2022-10-23T01:26:56.595Z,99.90
2022-10-23T01:29:33.233Z,99.90
2022-10-23T01:32:08.165Z,99.90
2022-10-23T01:34:45.959Z,99.90
2022-10-23T01:37:19.611Z,99.90
2022-10-23T01:39:52.904Z,99.90
2022-10-23T01:42:25.867Z,99.90
2022-10-23T01:45:01.449Z,99.90
2022-10-23T01:47:39.918Z,99.90
2022-10-23T01:50:14.085Z,99.90
2022-10-23T01:52:45.454Z,99.90
2022-10-23T01:55:14.537Z,99.90
2022-10-23T01:57:45.684Z,99.90
2022-10-23T02:00:19.846Z,99.90
2022-10-23T02:02:55.695Z,99.90
2022-10-23T02:05:31.840Z,99.90
2022-10-23T02:08:01.765Z,99.90
2022-10-23T02:10:34.687Z,99.90
2022-10-23T02:13:07.718Z,99.90
2022-10-23T02:15:40.773Z,99.90
2022-10-23T02:18:16.496Z,99.90
2022-10-23T02:20:49.222Z,99.90
2022-10-23T02:23:52.529Z,99.90
2022-10-23T02:26:27.471Z,99.90
2022-10-23T02:29:01.243Z,99.90
2022-10-23T02:31:30.905Z,99.90
2022-10-23T02:33:59.034Z,99.90
2022-10-23T02:36:27.144Z,99.90
2022-10-23T02:38:55.692Z,99.90
2022-10-23T02:41:37.468Z,99.90
2022-10-23T02:44:28.974Z,99.90
2022-10-23T02:47:08.787Z,99.90
2022-10-23T02:49:43.220Z,99.90
2022-10-23T02:52:21.586Z,99.90
2022-10-23T02:55:06.381Z,99.90
2022-10-23T02:57:54.261Z,99.90
2022-10-23T03:00:23.982Z,99.90
2022-10-23T03:02:58.203Z,99.90
2022-10-23T03:05:32.452Z,99.90
2022-10-23T03:08:00.743Z,99.90
2022-10-23T03:10:28.876Z,99.90
2022-10-23T03:12:57.394Z,99.90
2022-10-23T03:15:26.184Z,99.90
2022-10-23T03:17:56.951Z,99.90
2022-10-23T03:20:25.263Z,99.90
2022-10-23T03:22:53.508Z,99.90
2022-10-23T03:25:21.871Z,99.90
2022-10-23T03:27:50.163Z,99.90
2022-10-23T03:30:18.791Z,99.90
2022-10-23T03:32:50.858Z,99.90
2022-10-23T03:35:20.397Z,99.90
2022-10-23T03:37:48.642Z,99.90
2022-10-23T03:40:17.406Z,99.90
2022-10-23T03:42:46.058Z,99.90
2022-10-23T03:45:18.446Z,99.90
2022-10-23T03:47:46.835Z,99.90
2022-10-23T03:50:15.894Z,99.90
2022-10-23T03:52:46.033Z,99.90
2022-10-23T03:55:14.706Z,99.90
2022-10-23T03:57:42.847Z,99.90
2022-10-23T04:00:12.297Z,99.90
2022-10-23T04:02:48.221Z,99.90
2022-10-23T04:05:17.539Z,99.90
2022-10-23T04:07:55.869Z,99.90
2022-10-23T04:10:24.337Z,99.90
2022-10-23T04:12:52.476Z,99.90
2022-10-23T04:15:20.681Z,99.90
2022-10-23T04:17:48.890Z,99.90
2022-10-23T04:20:18.119Z,99.90
2022-10-23T04:22:46.675Z,99.90
2022-10-23T04:25:17.212Z,99.90
2022-10-23T04:27:46.534Z,99.90
2022-10-23T04:30:15.071Z,99.90
2022-10-23T04:32:43.234Z,99.90
2022-10-23T04:35:11.303Z,99.90
2022-10-23T04:37:39.804Z,99.90
2022-10-23T04:40:09.978Z,99.90
2022-10-23T04:42:41.049Z,99.90
2022-10-23T04:45:10.131Z,99.90
2022-10-23T04:47:38.501Z,99.90
2022-10-23T04:50:08.032Z,99.90
2022-10-23T04:52:56.176Z,99.90
2022-10-23T04:55:33.392Z,99.90
2022-10-23T04:58:13.931Z,99.90
2022-10-23T05:00:42.781Z,99.90
2022-10-23T05:03:11.059Z,99.90
2022-10-23T05:05:43.109Z,99.90
2022-10-23T05:08:26.694Z,99.90
2022-10-23T05:11:13.738Z,99.90
2022-10-23T05:13:47.759Z,99.90
2022-10-23T05:16:29.623Z,99.90
2022-10-23T05:19:00.865Z,99.90
2022-10-23T05:21:33.019Z,99.90
2022-10-23T05:24:02.172Z,99.90
2022-10-23T05:26:30.469Z,99.90
2022-10-23T05:29:02.217Z,99.90
2022-10-23T05:31:30.586Z,99.90
2022-10-23T05:34:08.783Z,99.90
2022-10-23T05:36:43.644Z,99.90
2022-10-23T05:39:11.950Z,99.90
2022-10-23T05:41:40.333Z,99.90
2022-10-23T05:44:09.774Z,99.90
2022-10-23T05:46:53.965Z,99.90
2022-10-23T05:49:44.295Z,99.90
2022-10-23T05:52:12.760Z,99.90
2022-10-23T05:55:07.210Z,99.90
2022-10-23T05:57:58.304Z,99.90
2022-10-23T06:00:51.016Z,99.90
2022-10-23T06:03:40.207Z,99.90
2022-10-23T06:06:13.152Z,99.90
2022-10-23T06:08:47.808Z,99.90
2022-10-23T06:11:17.645Z,99.90
2022-10-23T06:13:55.068Z,99.90
2022-10-23T06:16:27.025Z,99.90
2022-10-23T06:18:57.514Z,99.90
2022-10-23T06:21:26.013Z,99.90
2022-10-23T06:23:55.939Z,99.90
2022-10-23T06:26:42.202Z,99.90
2022-10-23T06:29:20.509Z,99.90
2022-10-23T06:31:51.889Z,99.90
2022-10-23T06:34:20.906Z,99.90
2022-10-23T06:36:49.305Z,99.90
2022-10-23T06:39:49.918Z,99.90
2022-10-23T06:42:21.138Z,99.90
2022-10-23T06:44:59.706Z,99.90
2022-10-23T06:47:53.168Z,99.90
2022-10-23T06:50:40.388Z,99.90
2022-10-23T06:53:14.002Z,99.90
2022-10-23T06:55:51.417Z,99.90
2022-10-23T06:58:25.908Z,99.90
2022-10-23T07:01:08.161Z,99.90
2022-10-23T07:58:06.805Z,94.50
2022-10-23T08:00:42.856Z,97.80
2022-10-23T08:03:20.691Z,99.90
2022-10-23T08:05:50.937Z,99.90
2022-10-23T08:08:21.540Z,99.90
2022-10-23T08:10:53.698Z,99.90
2022-10-23T08:13:27.685Z,99.90
2022-10-23T08:16:07.663Z,99.90
2022-10-23T08:18:54.309Z,99.90
2022-10-23T08:21:24.784Z,99.90
2022-10-23T08:23:56.150Z,99.90
2022-10-23T08:26:25.794Z,99.90
2022-10-23T08:28:54.557Z,99.90
2022-10-23T08:31:24.463Z,99.90
2022-10-23T08:34:16.641Z,99.90
2022-10-23T08:36:48.408Z,99.90
2022-10-23T08:39:17.055Z,99.90
2022-10-23T08:42:22.353Z,99.30
2022-10-23T08:45:03.553Z,95.60
2022-10-23T08:47:42.401Z,97.40
2022-10-23T08:50:33.224Z,96.60
2022-10-23T08:53:10.442Z,97.00
2022-10-23T08:55:43.584Z,99.90
2022-10-23T08:58:17.959Z,99.90
2022-10-23T09:00:48.718Z,99.90
2022-10-23T09:03:17.633Z,99.90
2022-10-23T09:05:56.831Z,99.90
2022-10-23T09:08:41.646Z,99.90
2022-10-23T09:11:17.176Z,98.10
2022-10-23T09:14:33.596Z,99.00
2022-10-23T09:19:48.142Z,99.90
2022-10-23T09:22:18.766Z,99.90
2022-10-23T09:24:53.792Z,99.90
2022-10-23T09:27:22.369Z,98.10
2022-10-23T09:29:53.243Z,98.20
2022-10-23T09:32:22.746Z,94.80
2022-10-23T09:34:55.925Z,93.40
2022-10-23T09:37:27.956Z,89.60
2022-10-23T09:40:19.749Z,87.60
2022-10-23T09:42:57.194Z,85.90
2022-10-23T09:45:28.996Z,85.30
2022-10-23T09:48:14.570Z,80.20
2022-10-23T09:50:54.432Z,77.80
2022-10-23T09:53:30.701Z,78.80
2022-10-23T09:56:02.885Z,79.40
2022-10-23T09:58:35.332Z,79.20
2022-10-23T10:01:04.779Z,75.80
2022-10-23T10:03:51.249Z,73.30
2022-10-23T10:06:26.518Z,74.30
2022-10-23T10:08:58.234Z,74.50
2022-10-23T10:11:35.185Z,80.90
2022-10-23T10:14:20.037Z,84.30
2022-10-23T10:16:53.567Z,85.10
2022-10-23T10:19:40.753Z,87.00
2022-10-23T10:22:17.919Z,90.40
2022-10-23T10:24:53.571Z,92.50
2022-10-23T10:27:37.190Z,92.40
2022-10-23T10:30:13.860Z,93.50
2022-10-23T10:32:47.628Z,95.00
2022-10-23T10:35:26.658Z,95.50
2022-10-23T10:38:25.387Z,97.60
2022-10-23T10:41:06.412Z,97.30
2022-10-23T10:43:47.796Z,98.10
2022-10-23T10:46:23.994Z,97.00
2022-10-23T10:49:00.481Z,97.00
2022-10-23T10:51:33.658Z,96.30
2022-10-23T10:54:19.893Z,98.40
2022-10-23T10:56:48.935Z,95.50
2022-10-23T10:59:25.694Z,94.90
2022-10-23T11:02:01.269Z,96.60
2022-10-23T11:04:36.657Z,94.70
2022-10-23T11:07:10.217Z,96.30
2022-10-23T11:09:40.365Z,98.70
2022-10-23T11:12:08.808Z,96.60
2022-10-23T11:14:39.961Z,95.90
2022-10-23T11:17:12.729Z,95.80
2022-10-23T11:19:45.722Z,97.00
2022-10-23T11:22:23.230Z,96.30
2022-10-23T11:25:29.040Z,98.20
2022-10-23T11:28:22.964Z,98.50
2022-10-23T11:31:11.544Z,96.40
2022-10-23T11:34:19.120Z,93.30
2022-10-23T11:36:47.610Z,93.00
2022-10-23T11:39:22.532Z,93.70
2022-10-23T11:41:54.090Z,94.10
2022-10-23T11:44:41.629Z,92.90
2022-10-23T11:47:44.218Z,93.90
2022-10-23T11:50:27.660Z,94.60
2022-10-23T11:53:19.918Z,93.00
2022-10-23T11:56:04.179Z,93.30
2022-10-23T11:58:44.102Z,95.00
2022-10-23T12:01:30.211Z,91.70
2022-10-23T12:04:01.412Z,91.50
2022-10-23T12:06:33.043Z,91.20
2022-10-23T12:09:08.381Z,94.40
2022-10-23T12:11:46.061Z,91.70
2022-10-23T12:14:28.536Z,92.20
2022-10-23T12:16:56.859Z,92.90
2022-10-23T12:19:28.710Z,91.40
2022-10-23T12:22:00.463Z,91.80
2022-10-23T12:24:40.473Z,91.80
2022-10-23T12:27:23.059Z,92.80
2022-10-23T12:30:31.592Z,93.10
2022-10-23T12:33:14.771Z,93.30
2022-10-23T12:39:29.715Z,93.10
2022-10-23T12:41:58.548Z,93.30
2022-10-23T12:44:27.945Z,94.10
2022-10-23T12:47:00.659Z,94.10
2022-10-23T12:49:33.600Z,94.90
2022-10-23T12:52:03.924Z,97.00
2022-10-23T12:54:40.068Z,95.30
2022-10-23T12:57:21.186Z,98.10
2022-10-23T12:59:50.206Z,98.10
2022-10-23T13:02:25.437Z,98.80
2022-10-23T13:04:56.105Z,99.90
2022-10-23T13:07:27.499Z,99.30
2022-10-23T13:09:59.800Z,97.10
2022-10-23T13:12:34.943Z,99.60
2022-10-23T13:15:14.970Z,99.90
2022-10-23T13:17:45.489Z,99.90
2022-10-23T13:20:27.639Z,99.90
2022-10-23T13:23:01.048Z,99.90
2022-10-23T13:25:32.948Z,99.90
2022-10-23T13:28:18.962Z,99.60
2022-10-23T13:30:47.490Z,99.90
2022-10-23T13:33:20.600Z,99.90
2022-10-23T13:35:56.924Z,99.90
2022-10-23T13:38:30.726Z,99.90
2022-10-23T13:41:02.947Z,99.90
2022-10-23T13:43:33.014Z,99.50
2022-10-23T13:46:02.013Z,98.50
2022-10-23T13:48:30.871Z,98.00
2022-10-23T13:51:10.853Z,97.50
2022-10-23T13:53:39.441Z,99.90
2022-10-23T13:56:11.870Z,99.90
2022-10-23T13:58:40.912Z,99.90
2022-10-23T14:01:17.649Z,99.90
2022-10-23T14:03:45.979Z,99.90
2022-10-23T14:06:14.107Z,99.90
2022-10-23T14:08:42.464Z,99.90
2022-10-23T14:11:40.986Z,99.90
2022-10-23T14:14:09.605Z,99.90
2022-10-23T14:16:38.511Z,99.90
2022-10-23T14:19:06.608Z,99.90
2022-10-23T14:21:34.785Z,99.90
2022-10-23T14:24:02.879Z,99.90
2022-10-23T14:26:32.769Z,99.90
2022-10-23T14:29:06.903Z,99.90
2022-10-23T14:31:38.367Z,99.90
2022-10-23T14:34:06.419Z,99.90
2022-10-23T14:36:43.601Z,99.90
2022-10-23T14:39:18.809Z,99.90
2022-10-23T14:41:47.010Z,99.90
2022-10-23T14:44:16.658Z,99.90
2022-10-23T14:46:44.736Z,99.90
2022-10-23T14:49:12.914Z,99.90
2022-10-23T14:51:41.137Z,99.90
2022-10-23T14:54:09.983Z,99.90
2022-10-23T14:56:40.052Z,99.90
2022-10-23T14:59:09.238Z,99.90
2022-10-23T15:01:43.907Z,99.90
2022-10-23T15:04:15.028Z,99.90
2022-10-23T15:06:43.999Z,99.90
2022-10-23T15:09:12.195Z,99.90
2022-10-23T15:11:40.290Z,99.90
2022-10-23T15:14:08.515Z,99.90
2022-10-23T15:16:41.540Z,99.90
2022-10-23T15:19:13.596Z,99.90
2022-10-23T15:21:45.910Z,99.90
2022-10-23T15:24:14.354Z,99.90
2022-10-23T15:26:44.524Z,99.90
2022-10-23T15:29:14.510Z,99.90
2022-10-23T15:31:50.228Z,99.90
2022-10-23T15:34:20.766Z,99.90
2022-10-23T15:36:49.524Z,99.90
2022-10-23T15:39:20.593Z,99.90
2022-10-23T15:41:51.485Z,99.90
2022-10-23T15:44:22.017Z,99.90
2022-10-23T15:46:52.039Z,99.90
2022-10-23T15:49:20.954Z,99.90
2022-10-23T15:51:49.162Z,99.90
2022-10-23T15:54:19.312Z,99.90
2022-10-23T15:56:49.518Z,99.90
2022-10-23T15:59:18.991Z,99.90
2022-10-23T16:01:47.525Z,99.90
2022-10-23T16:04:17.742Z,99.90
2022-10-23T16:06:46.677Z,99.90
2022-10-23T16:09:15.188Z,99.90
2022-10-23T16:11:44.776Z,99.90
2022-10-23T16:14:14.748Z,99.90
2022-10-23T16:16:43.680Z,99.90
2022-10-23T16:19:13.146Z,99.90
2022-10-23T16:21:43.210Z,99.90
2022-10-23T16:24:12.135Z,99.90
2022-10-23T16:26:40.863Z,99.90
2022-10-23T16:29:10.207Z,99.90
2022-10-23T16:31:38.651Z,99.90
2022-10-23T16:34:07.025Z,99.90
2022-10-23T16:36:39.132Z,99.90
2022-10-23T16:39:27.270Z,99.90
2022-10-23T16:42:14.356Z,99.90
2022-10-23T16:44:57.768Z,99.90
2022-10-23T16:47:25.984Z,99.90
2022-10-23T16:49:54.058Z,99.90
2022-10-23T16:52:22.294Z,99.90
2022-10-23T16:54:52.230Z,99.90
2022-10-23T16:57:20.571Z,99.90
2022-10-23T16:59:48.919Z,99.90
2022-10-23T17:02:17.304Z,99.90
2022-10-23T17:04:45.634Z,99.90
2022-10-23T17:07:14.100Z,99.90
2022-10-23T17:09:44.829Z,99.90
2022-10-23T17:12:14.319Z,99.90
2022-10-23T17:14:42.547Z,99.90
2022-10-23T17:17:11.122Z,99.90
2022-10-23T17:19:45.968Z,99.90
2022-10-23T17:22:15.524Z,99.90
2022-10-23T17:24:46.426Z,99.90
2022-10-23T17:27:18.561Z,99.90
2022-10-23T17:29:46.722Z,99.90
2022-10-23T17:32:14.967Z,99.90
2022-10-23T17:34:43.114Z,99.90
2022-10-23T17:37:13.305Z,99.90
2022-10-23T17:39:42.351Z,99.90
2022-10-23T17:42:10.796Z,99.90
2022-10-23T17:44:40.412Z,99.90
2022-10-23T17:47:08.448Z,99.90
2022-10-23T17:49:36.614Z,99.90
2022-10-23T17:52:05.403Z,99.90
2022-10-23T17:54:33.536Z,99.90
2022-10-23T17:57:01.599Z,99.90
2022-10-23T17:59:29.699Z,99.90
2022-10-23T18:02:00.795Z,99.90
2022-10-23T18:04:29.206Z,99.90
2022-10-23T18:06:57.315Z,99.90
2022-10-23T18:09:25.948Z,99.90
2022-10-23T18:11:54.319Z,99.90
2022-10-23T18:14:25.134Z,99.90
2022-10-23T18:16:55.908Z,99.90
2022-10-23T18:19:25.634Z,99.90
2022-10-23T18:21:54.111Z,99.90
2022-10-23T18:24:22.538Z,99.90
2022-10-23T18:26:50.729Z,99.90
2022-10-23T18:29:19.136Z,99.90
2022-10-23T18:31:48.711Z,99.90
2022-10-23T18:34:19.083Z,99.90
2022-10-23T18:36:50.207Z,99.90
2022-10-23T18:39:22.443Z,99.90
2022-10-23T18:41:53.076Z,99.90
2022-10-23T18:44:23.402Z,99.90
2022-10-23T18:46:52.166Z,99.90
2022-10-23T18:49:20.843Z,99.90
2022-10-23T18:51:51.134Z,99.90
2022-10-23T18:54:21.834Z,99.90
2022-10-23T18:56:50.146Z,99.90
2022-10-23T18:59:20.152Z,99.90
2022-10-23T19:01:48.643Z,99.90
2022-10-23T19:04:18.063Z,99.90
2022-10-23T19:06:46.594Z,99.90
2022-10-23T19:09:16.659Z,99.90
2022-10-23T19:11:46.036Z,99.90
2022-10-23T19:14:14.198Z,99.90
2022-10-23T19:16:46.942Z,99.90
2022-10-23T19:19:19.891Z,99.90
2022-10-23T19:21:48.853Z,99.90
2022-10-23T19:24:22.345Z,99.90
2022-10-23T19:26:51.121Z,99.90
2022-10-23T19:29:21.903Z,99.90
2022-10-23T19:31:50.832Z,99.90
2022-10-23T19:34:20.218Z,99.90
2022-10-23T19:36:48.722Z,99.90
2022-10-23T19:39:18.830Z,99.90
2022-10-23T19:41:47.554Z,99.90
2022-10-23T19:44:16.133Z,99.90
2022-10-23T19:46:44.939Z,99.90
2022-10-23T19:49:13.087Z,99.90
2022-10-23T19:51:41.284Z,99.90
2022-10-23T19:54:10.598Z,99.90
2022-10-23T19:56:40.514Z,99.90
2022-10-23T19:59:08.816Z,99.90
2022-10-23T20:01:36.858Z,99.90
2022-10-23T20:04:05.002Z,99.90
2022-10-23T20:06:34.780Z,99.90
2022-10-23T20:09:04.847Z,99.90
2022-10-23T20:11:33.277Z,99.90
2022-10-23T20:14:03.180Z,99.90
2022-10-23T20:16:33.060Z,99.90
2022-10-23T20:19:03.270Z,99.90
2022-10-23T20:21:31.871Z,99.90
2022-10-23T20:24:00.178Z,99.90
2022-10-23T20:26:28.243Z,99.90
2022-10-23T20:28:57.576Z,99.90
2022-10-23T20:31:36.366Z,99.90
2022-10-23T20:34:04.882Z,99.90
2022-10-23T20:36:35.378Z,99.90
2022-10-23T20:39:05.566Z,99.90
2022-10-23T20:41:36.923Z,99.90
2022-10-23T20:44:06.984Z,99.90
2022-10-23T20:46:36.588Z,99.90
2022-10-23T20:49:05.323Z,99.90
2022-10-23T20:51:33.581Z,99.90
2022-10-23T20:54:01.639Z,99.90
2022-10-23T20:56:32.612Z,99.90
2022-10-23T20:59:02.362Z,99.90
2022-10-23T21:01:31.654Z,99.90
2022-10-23T21:04:02.814Z,99.90
2022-10-23T21:06:45.737Z,99.90
2022-10-23T21:09:21.579Z,99.90
2022-10-23T21:11:49.718Z,99.90
2022-10-23T21:14:18.006Z,99.90
2022-10-23T21:16:46.603Z,99.90
2022-10-23T21:19:17.010Z,99.90
2022-10-23T21:21:45.772Z,99.90
2022-10-23T21:24:17.004Z,99.90
2022-10-23T21:26:46.276Z,99.90
2022-10-23T21:29:19.804Z,99.90
2022-10-23T21:31:54.646Z,99.90
2022-10-23T21:34:24.514Z,99.90
2022-10-23T21:37:11.804Z,99.90
2022-10-23T21:39:41.220Z,99.90
2022-10-23T21:42:09.354Z,99.90
2022-10-23T21:44:37.508Z,99.90
2022-10-23T21:47:05.800Z,99.90
2022-10-23T21:49:35.439Z,99.90
2022-10-23T21:52:03.561Z,99.90
2022-10-23T21:54:31.804Z,99.90
2022-10-23T21:57:00.152Z,99.90
2022-10-23T21:59:30.243Z,99.90
2022-10-23T22:02:00.163Z,99.90
2022-10-23T22:04:28.384Z,99.90
2022-10-23T22:06:58.055Z,99.90
2022-10-23T22:09:26.207Z,99.90
2022-10-23T22:11:55.305Z,99.90
2022-10-23T22:14:24.006Z,99.90
2022-10-23T22:16:52.205Z,99.90
2022-10-23T22:19:22.411Z,99.90
2022-10-23T22:21:51.433Z,99.90
2022-10-23T22:24:21.227Z,99.90
2022-10-23T22:26:51.414Z,99.90
2022-10-23T22:29:22.131Z,99.90
2022-10-23T22:31:50.713Z,99.90
2022-10-23T22:34:27.273Z,99.90
2022-10-23T22:37:11.864Z,99.90
2022-10-23T22:39:41.859Z,99.90
2022-10-23T22:42:10.264Z,99.90
2022-10-23T22:44:38.341Z,99.90
2022-10-23T22:47:06.702Z,99.90
2022-10-23T22:49:34.758Z,99.90
2022-10-23T22:52:02.926Z,99.90
2022-10-23T22:54:31.663Z,99.90
2022-10-23T22:57:01.330Z,99.90
2022-10-23T22:59:29.368Z,99.90
2022-10-23T23:01:57.664Z,99.90
2022-10-23T23:04:37.785Z,99.90
2022-10-23T23:07:07.081Z,99.90
2022-10-23T23:09:38.094Z,99.90
2022-10-23T23:12:08.581Z,99.90
2022-10-23T23:14:36.928Z,99.90
2022-10-23T23:17:06.086Z,99.90
2022-10-23T23:19:34.809Z,99.90
2022-10-23T23:22:03.231Z,99.90
2022-10-23T23:24:32.126Z,99.90
2022-10-23T23:27:00.524Z,99.90
2022-10-23T23:29:30.019Z,99.90
2022-10-23T23:31:58.263Z,99.90
2022-10-23T23:34:26.522Z,99.90
2022-10-23T23:36:57.139Z,99.90
2022-10-23T23:39:26.126Z,99.90
2022-10-23T23:41:54.305Z,99.90
2022-10-23T23:44:22.386Z,99.90
2022-10-23T23:46:51.817Z,99.90
2022-10-23T23:49:19.841Z,99.90
2022-10-23T23:51:47.989Z,99.90
2022-10-23T23:54:16.271Z,99.90
2022-10-23T23:56:44.411Z,99.90
2022-10-23T23:59:12.861Z,99.90
